Time;durP1;ratioP1;P1;durP2;ratioP2;P2;SDS_P1;SDS_P2;PMS_P1;PMS_P2;Temp;Humidity;BMP_temperature;BMP_pressure;BME280_temperature;BME280_humidity;BME280_pressure;Samples;Min_cycle;Max_cycle;Signal;HPM_P1;HPM_P2
2021/10/02 13:53:08;;;;;;;2.78;0.25;;;;;;;;;;5057567;27;20408;-64
2021/10/02 13:55:34;;;;;;;2.22;0.20;;;;;;;;;;5059693;28;20090;-64
2021/10/02 13:58:01;;;;;;;2.40;0.60;;;;;;;;;;5058776;28;20036;-65
2021/10/02 14:00:28;;;;;;;1.27;0.10;;;;;;;;;;5050801;28;20539;-64
2021/10/02 14:02:54;;;;;;;0.65;0.20;;;;;;;;;;5043648;28;22310;-63
2021/10/02 14:05:20;;;;;;;2.83;0.20;;;;;;;;;;5058196;28;20039;-63
2021/10/02 14:07:46;;;;;;;0.60;0.20;;;;;;;;;;5056163;28;20100;-64
2021/10/02 14:10:11;;;;;;;5.68;0.10;;;;;;;;;;5063248;28;20053;-64
2021/10/02 14:12:37;;;;;;;2.78;0.10;;;;;;;;;;5050648;28;20047;-58
2021/10/02 14:15:05;;;;;;;0.98;0.13;;;;;;;;;;5056071;28;20176;-59
2021/10/02 14:17:30;;;;;;;0.93;0.20;;;;;;;;;;5056902;28;20419;-58
2021/10/02 14:19:56;;;;;;;0.60;0.10;;;;;;;;;;5055598;28;20032;-58
2021/10/02 14:22:21;;;;;;;2.05;0.20;;;;;;;;;;5052955;28;20033;-59
2021/10/02 14:24:47;;;;;;;1.65;0.20;;;;;;;;;;5051251;28;20052;-59
2021/10/02 14:27:13;;;;;;;0.82;0.50;;;;;;;;;;5051436;28;20040;-59
2021/10/02 14:29:38;;;;;;;0.73;0.10;;;;;;;;;;5050110;28;20752;-58
2021/10/02 14:32:04;;;;;;;4.80;0.25;;;;;;;;;;5047725;28;20249;-58
2021/10/02 14:34:30;;;;;;;1.63;0.28;;;;;;;;;;5046139;28;20187;-58
2021/10/02 14:36:56;;;;;;;1.52;0.20;;;;;;;;;;5046510;28;20141;-59
2021/10/02 14:39:21;;;;;;;2.13;0.22;;;;;;;;;;5051153;28;20332;-59
2021/10/02 14:41:48;;;;;;;0.85;0.17;;;;;;;;;;5042574;28;20274;-59
2021/10/02 14:44:14;;;;;;;2.28;0.20;;;;;;;;;;5044753;28;20112;-59
2021/10/02 14:46:40;;;;;;;1.15;0.20;;;;;;;;;;5047524;28;20112;-59
2021/10/02 14:49:05;;;;;;;1.10;0.30;;;;;;;;;;5048563;28;20855;-59
2021/10/02 14:51:31;;;;;;;1.00;0.20;;;;;;;;;;5048475;28;20040;-59
2021/10/02 14:53:57;;;;;;;1.30;0.20;;;;;;;;;;5044200;28;20041;-58
2021/10/02 14:56:23;;;;;;;0.45;0.10;;;;;;;;;;5048935;28;20547;-58
2021/10/02 14:58:49;;;;;;;0.88;0.10;;;;;;;;;;5044496;28;20033;-59
2021/10/02 15:01:15;;;;;;;0.50;0.10;;;;;;;;;;5044483;28;20510;-58
2021/10/02 15:03:46;;;;;;;0.43;0.10;;;;;;;;;;5037648;28;20041;-58
2021/10/02 15:06:12;;;;;;;1.20;0.35;;;;;;;;;;5036868;28;20033;-58
2021/10/02 15:08:38;;;;;;;4.03;0.22;;;;;;;;;;5032372;28;20028;-59
2021/10/02 15:11:04;;;;;;;3.70;0.40;;;;;;;;;;5039202;28;20059;-58
2021/10/02 15:13:30;;;;;;;0.93;0.30;;;;;;;;;;5044907;28;20465;-59
2021/10/02 15:15:56;;;;;;;2.83;0.38;;;;;;;;;;5038778;28;20029;-59
2021/10/02 15:18:27;;;;;;;3.45;0.50;;;;;;;;;;5031423;28;20065;-58
2021/10/02 15:20:58;;;;;;;2.13;0.30;;;;;;;;;;5034642;28;20484;-59
2021/10/02 15:23:29;;;;;;;0.80;0.30;;;;;;;;;;5039018;28;20036;-58
2021/10/02 15:25:56;;;;;;;0.45;0.22;;;;;;;;;;5035875;28;20026;-58
2021/10/02 15:28:23;;;;;;;1.38;0.30;;;;;;;;;;5038740;28;20047;-58
2021/10/02 15:30:53;;;;;;;0.40;0.22;;;;;;;;;;5039738;28;20079;-58
2021/10/02 15:33:20;;;;;;;0.98;0.30;;;;;;;;;;5036569;28;20033;-59
2021/10/02 15:35:49;;;;;;;2.00;0.50;;;;;;;;;;5034425;28;20155;-59
2021/10/02 15:38:17;;;;;;;3.17;0.60;;;;;;;;;;5032569;28;20028;-58
2021/10/02 15:40:44;;;;;;;2.50;0.50;;;;;;;;;;5033639;28;20064;-58
2021/10/02 15:43:12;;;;;;;2.05;0.40;;;;;;;;;;5036932;28;20203;-58
2021/10/02 15:45:47;;;;;;;1.10;0.45;;;;;;;;;;5033043;28;20045;-58
2021/10/02 15:48:13;;;;;;;2.05;0.45;;;;;;;;;;5034786;28;20040;-59
2021/10/02 15:50:47;;;;;;;2.40;0.85;;;;;;;;;;5036100;28;20025;-58
2021/10/02 15:53:13;;;;;;;1.95;0.60;;;;;;;;;;5033105;28;20044;-59
2021/10/02 15:55:43;;;;;;;3.45;0.30;;;;;;;;;;5038901;28;20029;-58
2021/10/02 15:58:10;;;;;;;1.95;0.30;;;;;;;;;;5034584;28;20081;-59
2021/10/02 16:00:41;;;;;;;0.95;0.55;;;;;;;;;;5038347;28;20022;-59
2021/10/02 16:03:15;;;;;;;0.82;0.40;;;;;;;;;;5036985;28;20017;-58
2021/10/02 16:05:50;;;;;;;0.57;0.25;;;;;;;;;;5035303;28;20102;-58
2021/10/02 16:08:18;;;;;;;2.35;0.63;;;;;;;;;;5042004;28;20175;-58
2021/10/02 16:10:44;;;;;;;1.80;0.38;;;;;;;;;;5035115;28;20021;-59
2021/10/02 16:13:10;;;;;;;3.10;0.40;;;;;;;;;;5041416;28;20029;-59
2021/10/02 16:15:37;;;;;;;1.27;0.40;;;;;;;;;;5035457;28;20030;-58
2021/10/02 16:18:05;;;;;;;1.85;0.38;;;;;;;;;;5036055;28;20037;-58
2021/10/02 16:20:31;;;;;;;3.08;0.50;;;;;;;;;;5035031;28;20081;-59
2021/10/02 16:22:58;;;;;;;2.00;0.40;;;;;;;;;;5034077;28;20554;-59
2021/10/02 16:25:26;;;;;;;1.17;0.55;;;;;;;;;;5033139;28;20040;-59
2021/10/02 16:27:52;;;;;;;0.90;0.43;;;;;;;;;;5032770;28;20364;-59
2021/10/02 16:30:18;;;;;;;2.70;0.60;;;;;;;;;;5031097;28;20025;-59
2021/10/02 16:32:44;;;;;;;2.35;0.40;;;;;;;;;;5033807;28;20064;-59
2021/10/02 16:35:09;;;;;;;3.42;0.50;;;;;;;;;;5030659;28;20552;-58
2021/10/02 16:37:37;;;;;;;0.90;0.32;;;;;;;;;;5035646;28;20432;-59
2021/10/02 16:40:06;;;;;;;2.17;0.45;;;;;;;;;;5032505;28;21480;-59
2021/10/02 16:42:31;;;;;;;4.00;0.60;;;;;;;;;;5035435;28;20187;-58
2021/10/02 16:44:57;;;;;;;3.35;0.57;;;;;;;;;;5032207;28;20281;-59
2021/10/02 16:47:23;;;;;;;4.03;0.63;;;;;;;;;;5030808;28;20037;-58
2021/10/02 16:49:49;;;;;;;4.18;0.68;;;;;;;;;;5029847;28;20025;-59
2021/10/02 16:52:15;;;;;;;1.67;0.40;;;;;;;;;;5039122;28;20045;-58
2021/10/02 16:54:41;;;;;;;5.00;0.60;;;;;;;;;;5034228;28;20029;-58
2021/10/02 16:57:06;;;;;;;4.68;0.80;;;;;;;;;;5032519;28;20052;-59
2021/10/02 16:59:32;;;;;;;4.75;1.05;;;;;;;;;;5032914;28;20044;-58
2021/10/02 17:01:58;;;;;;;4.10;0.60;;;;;;;;;;5037175;28;20048;-59
2021/10/02 17:04:23;;;;;;;6.25;0.80;;;;;;;;;;5034293;28;20116;-58
2021/10/02 17:06:49;;;;;;;2.22;0.38;;;;;;;;;;5030747;28;20025;-58
2021/10/02 17:09:14;;;;;;;9.07;1.15;;;;;;;;;;5029311;28;20082;-58
2021/10/02 17:11:40;;;;;;;5.57;0.73;;;;;;;;;;5031193;28;20511;-59
2021/10/02 17:14:06;;;;;;;4.88;0.88;;;;;;;;;;5027920;28;20152;-60
2021/10/02 17:16:31;;;;;;;16.17;0.70;;;;;;;;;;5012417;28;20494;-59
2021/10/02 17:18:58;;;;;;;4.97;0.73;;;;;;;;;;5033728;28;20041;-58
2021/10/02 17:21:26;;;;;;;2.60;0.55;;;;;;;;;;5032891;28;20388;-59
2021/10/02 17:23:51;;;;;;;9.35;1.17;;;;;;;;;;5036757;28;20075;-59
2021/10/02 17:26:17;;;;;;;9.68;0.90;;;;;;;;;;5033637;28;20463;-58
2021/10/02 17:28:44;;;;;;;6.18;1.00;;;;;;;;;;5034165;28;20479;-59
2021/10/02 17:31:10;;;;;;;7.03;1.42;;;;;;;;;;5028213;28;20094;-59
2021/10/02 17:33:35;;;;;;;4.38;1.45;;;;;;;;;;5029931;28;20033;-58
2021/10/02 17:36:01;;;;;;;4.78;1.55;;;;;;;;;;5029822;28;20256;-59
2021/10/02 17:38:27;;;;;;;6.47;1.83;;;;;;;;;;5030477;28;20100;-59
2021/10/02 17:40:53;;;;;;;7.38;2.33;;;;;;;;;;5024472;28;20191;-59
2021/10/02 17:43:22;;;;;;;7.82;1.58;;;;;;;;;;5030842;28;20124;-59
2021/10/02 17:45:49;;;;;;;9.30;2.38;;;;;;;;;;5033567;28;20282;-59
2021/10/02 17:48:15;;;;;;;7.43;2.65;;;;;;;;;;5028676;28;20049;-59
2021/10/02 17:50:40;;;;;;;7.95;2.00;;;;;;;;;;5030801;28;20452;-59
2021/10/02 17:53:08;;;;;;;8.57;1.58;;;;;;;;;;5035408;28;20033;-59
2021/10/02 17:55:35;;;;;;;5.25;2.08;;;;;;;;;;5035238;28;20453;-59
2021/10/02 17:58:01;;;;;;;7.90;2.17;;;;;;;;;;5035111;28;20033;-60
2021/10/02 18:00:29;;;;;;;8.95;3.15;;;;;;;;;;5027702;28;20419;-58
2021/10/02 18:02:56;;;;;;;8.07;2.70;;;;;;;;;;5037366;28;20408;-58
2021/10/02 18:05:23;;;;;;;8.98;3.15;;;;;;;;;;5038875;28;20036;-60
2021/10/02 18:07:49;;;;;;;8.65;3.22;;;;;;;;;;5032261;28;20400;-58
2021/10/02 18:10:16;;;;;;;13.07;4.68;;;;;;;;;;5031979;28;20391;-58
2021/10/02 18:12:42;;;;;;;12.75;4.00;;;;;;;;;;5035848;28;20228;-58
2021/10/02 18:15:08;;;;;;;11.60;4.07;;;;;;;;;;5035259;28;20037;-58
2021/10/02 18:17:34;;;;;;;9.80;3.83;;;;;;;;;;5033439;28;20032;-59
2021/10/02 18:20:00;;;;;;;16.27;4.03;;;;;;;;;;5034701;28;20384;-58
2021/10/02 18:22:29;;;;;;;10.73;4.60;;;;;;;;;;5027685;28;20017;-58
2021/10/02 18:24:57;;;;;;;8.43;2.90;;;;;;;;;;5028754;28;20030;-58
2021/10/02 18:27:29;;;;;;;10.10;3.10;;;;;;;;;;5031163;28;20547;-58
2021/10/02 18:29:55;;;;;;;8.90;2.67;;;;;;;;;;5035134;28;20038;-58
2021/10/02 18:32:23;;;;;;;13.57;2.70;;;;;;;;;;5028788;28;20044;-59
2021/10/02 18:34:50;;;;;;;11.40;2.88;;;;;;;;;;5032506;28;20113;-58
2021/10/02 18:37:16;;;;;;;11.32;2.80;;;;;;;;;;5036644;28;20466;-59
2021/10/02 18:39:42;;;;;;;11.18;2.97;;;;;;;;;;5033841;28;20033;-59
2021/10/02 18:42:08;;;;;;;7.72;2.80;;;;;;;;;;5034276;28;20029;-59
2021/10/02 18:44:34;;;;;;;8.18;2.22;;;;;;;;;;5042907;28;20033;-59
2021/10/02 18:46:59;;;;;;;7.95;3.33;;;;;;;;;;5018916;28;20044;-59
2021/10/02 18:49:25;;;;;;;10.65;3.38;;;;;;;;;;5037134;28;20029;-59
2021/10/02 18:51:50;;;;;;;12.52;3.45;;;;;;;;;;5033656;28;20046;-59
2021/10/02 18:54:22;;;;;;;11.65;2.97;;;;;;;;;;5040989;28;20108;-59
2021/10/02 18:56:50;;;;;;;9.13;3.80;;;;;;;;;;5038302;28;20031;-59
2021/10/02 18:59:16;;;;;;;11.35;3.35;;;;;;;;;;5038030;28;20032;-59
2021/10/02 19:01:43;;;;;;;8.55;3.42;;;;;;;;;;5031155;28;20029;-59
2021/10/02 19:04:08;;;;;;;10.70;3.97;;;;;;;;;;5031895;28;20048;-59
2021/10/02 19:06:38;;;;;;;5.95;2.40;;;;;;;;;;5041211;28;20025;-59
2021/10/02 19:09:04;;;;;;;7.97;2.42;;;;;;;;;;5050841;28;20401;-59
2021/10/02 19:11:30;;;;;;;8.88;2.45;;;;;;;;;;5034037;28;20033;-59
2021/10/02 19:13:55;;;;;;;4.85;1.95;;;;;;;;;;5034643;28;20041;-59
2021/10/02 19:16:21;;;;;;;6.88;2.45;;;;;;;;;;5030807;28;20147;-59
2021/10/02 19:18:46;;;;;;;5.22;2.00;;;;;;;;;;5039605;28;20299;-59
2021/10/02 19:21:13;;;;;;;10.15;2.50;;;;;;;;;;5033088;28;20549;-59
2021/10/02 19:23:38;;;;;;;8.23;2.88;;;;;;;;;;5033208;28;20025;-59
2021/10/02 19:26:07;;;;;;;11.77;2.95;;;;;;;;;;5037333;28;20043;-60
2021/10/02 19:28:32;;;;;;;8.20;2.53;;;;;;;;;;5037582;28;20025;-59
2021/10/02 19:30:58;;;;;;;9.23;3.15;;;;;;;;;;5036142;28;20043;-59
2021/10/02 19:33:26;;;;;;;8.23;2.63;;;;;;;;;;5034426;28;20116;-59
2021/10/02 19:35:52;;;;;;;6.43;2.58;;;;;;;;;;5037369;28;20017;-59
2021/10/02 19:38:18;;;;;;;6.78;2.13;;;;;;;;;;5032737;28;20483;-59
2021/10/02 19:40:44;;;;;;;7.55;3.00;;;;;;;;;;5034335;28;20044;-59
2021/10/02 19:43:09;;;;;;;6.72;1.50;;;;;;;;;;5037229;28;20112;-59
2021/10/02 19:45:38;;;;;;;7.63;1.77;;;;;;;;;;5035621;28;20444;-59
2021/10/02 19:48:04;;;;;;;5.40;1.48;;;;;;;;;;5040659;28;20112;-60
2021/10/02 19:50:30;;;;;;;6.80;1.75;;;;;;;;;;5036884;28;20464;-60
2021/10/02 19:52:56;;;;;;;6.75;1.80;;;;;;;;;;5035341;28;20061;-59
2021/10/02 19:55:22;;;;;;;5.53;2.40;;;;;;;;;;5040191;28;20032;-60
2021/10/02 19:57:48;;;;;;;3.90;1.75;;;;;;;;;;5035495;28;20482;-59
2021/10/02 20:00:14;;;;;;;3.90;1.30;;;;;;;;;;5034166;28;20030;-59
2021/10/02 20:02:41;;;;;;;9.52;2.00;;;;;;;;;;5028233;28;20086;-59
2021/10/02 20:05:08;;;;;;;4.57;1.70;;;;;;;;;;5036429;28;20041;-60
2021/10/02 20:07:34;;;;;;;11.10;2.00;;;;;;;;;;5038221;28;20034;-59
2021/10/02 20:10:00;;;;;;;8.80;2.30;;;;;;;;;;5034090;28;20052;-59
2021/10/02 20:12:25;;;;;;;6.78;1.40;;;;;;;;;;5031826;28;20530;-59
2021/10/02 20:14:51;;;;;;;12.02;1.73;;;;;;;;;;5038042;28;20052;-59
2021/10/02 20:17:17;;;;;;;9.00;1.52;;;;;;;;;;5033127;28;20064;-60
2021/10/02 20:19:44;;;;;;;5.72;1.25;;;;;;;;;;5029902;28;22290;-60
2021/10/02 20:22:10;;;;;;;5.80;1.58;;;;;;;;;;5035460;28;20056;-59
2021/10/02 20:24:36;;;;;;;5.22;1.05;;;;;;;;;;5035188;28;20398;-59
2021/10/02 20:27:02;;;;;;;5.95;0.90;;;;;;;;;;5037015;28;20032;-59
2021/10/02 20:29:27;;;;;;;6.30;1.08;;;;;;;;;;5029347;28;20040;-59
2021/10/02 20:31:53;;;;;;;4.35;1.25;;;;;;;;;;5038905;28;20079;-59
2021/10/02 20:34:18;;;;;;;4.88;0.98;;;;;;;;;;5030597;28;20083;-59
2021/10/02 20:36:44;;;;;;;6.70;0.85;;;;;;;;;;5036090;28;20412;-60
2021/10/02 20:39:11;;;;;;;2.28;1.00;;;;;;;;;;5035061;28;20029;-59
2021/10/02 20:41:37;;;;;;;4.20;1.33;;;;;;;;;;5034596;28;20608;-59
2021/10/02 20:44:03;;;;;;;9.32;1.33;;;;;;;;;;5032675;28;20037;-60
2021/10/02 20:46:28;;;;;;;5.20;0.95;;;;;;;;;;5026956;28;20037;-59
2021/10/02 20:48:54;;;;;;;9.02;1.48;;;;;;;;;;5030033;28;20029;-59
2021/10/02 20:51:20;;;;;;;6.90;1.20;;;;;;;;;;5028262;28;20056;-59
2021/10/02 20:53:45;;;;;;;6.00;1.00;;;;;;;;;;5037233;28;20061;-59
2021/10/02 20:56:11;;;;;;;2.97;0.80;;;;;;;;;;5029527;28;20041;-59
2021/10/02 20:58:37;;;;;;;5.50;1.17;;;;;;;;;;5029626;28;20519;-59
2021/10/02 21:01:05;;;;;;;4.03;0.75;;;;;;;;;;5031320;28;20527;-58
2021/10/02 21:03:37;;;;;;;4.30;0.90;;;;;;;;;;5035261;28;20079;-59
2021/10/02 21:06:02;;;;;;;3.17;0.90;;;;;;;;;;5036986;28;20505;-59
2021/10/02 21:08:31;;;;;;;3.05;0.55;;;;;;;;;;5038018;28;20064;-59
2021/10/02 21:10:58;;;;;;;8.32;0.82;;;;;;;;;;5034063;28;20044;-59
2021/10/02 21:13:23;;;;;;;3.60;0.52;;;;;;;;;;5036663;28;20033;-59
2021/10/02 21:15:49;;;;;;;7.28;0.80;;;;;;;;;;5034634;28;20029;-59
2021/10/02 21:18:16;;;;;;;3.63;0.85;;;;;;;;;;5037745;28;20671;-59
2021/10/02 21:20:47;;;;;;;7.13;1.15;;;;;;;;;;5034790;28;20048;-58
2021/10/02 21:23:13;;;;;;;5.20;0.63;;;;;;;;;;5033505;28;20476;-59
2021/10/02 21:25:39;;;;;;;8.20;1.02;;;;;;;;;;5033833;28;20068;-58
2021/10/02 21:28:06;;;;;;;5.30;0.68;;;;;;;;;;5034849;28;20119;-59
2021/10/02 21:30:33;;;;;;;6.10;1.00;;;;;;;;;;5037341;28;20032;-58
2021/10/02 21:33:00;;;;;;;4.05;0.57;;;;;;;;;;5032319;28;20051;-59
2021/10/02 21:35:28;;;;;;;2.88;0.60;;;;;;;;;;5028279;28;20049;-59
2021/10/02 21:37:54;;;;;;;4.13;0.75;;;;;;;;;;5032567;28;20032;-59
2021/10/02 21:40:22;;;;;;;4.80;0.57;;;;;;;;;;5032678;28;20033;-59
2021/10/02 21:42:49;;;;;;;3.10;0.45;;;;;;;;;;5037576;28;20029;-59
2021/10/02 21:45:15;;;;;;;6.32;0.73;;;;;;;;;;5032034;28;20037;-59
2021/10/02 21:47:40;;;;;;;7.22;0.73;;;;;;;;;;5036447;28;20387;-59
2021/10/02 21:50:07;;;;;;;6.40;0.60;;;;;;;;;;5031922;28;20033;-59
2021/10/02 21:52:34;;;;;;;7.20;0.57;;;;;;;;;;5036752;28;20033;-59
2021/10/02 21:55:01;;;;;;;2.67;0.60;;;;;;;;;;5035780;28;20037;-59
2021/10/02 21:57:27;;;;;;;4.68;0.40;;;;;;;;;;5029029;28;20063;-59
2021/10/02 21:59:54;;;;;;;4.18;0.32;;;;;;;;;;5034779;28;20106;-59
2021/10/02 22:02:23;;;;;;;3.25;0.40;;;;;;;;;;5029634;28;20029;-59
2021/10/02 22:04:48;;;;;;;4.55;0.93;;;;;;;;;;5029669;28;20446;-59
2021/10/02 22:07:16;;;;;;;1.98;0.30;;;;;;;;;;5029447;28;20037;-59
2021/10/02 22:09:41;;;;;;;2.05;0.50;;;;;;;;;;5032542;28;20119;-60
2021/10/02 22:12:07;;;;;;;6.65;1.42;;;;;;;;;;5034291;28;20782;-60
2021/10/02 22:14:33;;;;;;;6.43;0.60;;;;;;;;;;5035706;28;20124;-59
2021/10/02 22:16:58;;;;;;;5.43;0.63;;;;;;;;;;5040016;28;20033;-59
2021/10/02 22:19:28;;;;;;;4.47;0.60;;;;;;;;;;5036165;28;20151;-60
2021/10/02 22:21:55;;;;;;;4.45;0.32;;;;;;;;;;5034456;28;20024;-60
2021/10/02 22:24:20;;;;;;;7.97;0.60;;;;;;;;;;5037905;28;20033;-60
2021/10/02 22:26:50;;;;;;;2.90;0.30;;;;;;;;;;5035704;28;20032;-60
2021/10/02 22:29:17;;;;;;;4.45;0.43;;;;;;;;;;5034339;28;20040;-60
2021/10/02 22:31:44;;;;;;;2.42;0.57;;;;;;;;;;5035015;28;20037;-60
2021/10/02 22:34:10;;;;;;;5.32;1.45;;;;;;;;;;5037706;28;20454;-60
2021/10/02 22:36:39;;;;;;;8.27;0.75;;;;;;;;;;5032980;28;20444;-60
2021/10/02 22:39:06;;;;;;;6.13;0.70;;;;;;;;;;5031941;28;20030;-60
2021/10/02 22:41:35;;;;;;;2.90;0.70;;;;;;;;;;5033472;28;20503;-60
2021/10/02 22:44:01;;;;;;;6.00;0.75;;;;;;;;;;5035767;28;20068;-59
2021/10/02 22:46:26;;;;;;;4.93;0.60;;;;;;;;;;5039937;28;20068;-60
2021/10/02 22:48:53;;;;;;;6.63;0.60;;;;;;;;;;5032324;28;20049;-60
2021/10/02 22:51:20;;;;;;;5.63;0.60;;;;;;;;;;5032912;28;20064;-60
2021/10/02 22:53:46;;;;;;;4.47;0.70;;;;;;;;;;5034478;28;20396;-60
2021/10/02 22:56:12;;;;;;;6.25;0.85;;;;;;;;;;5038999;28;20033;-60
2021/10/02 22:58:38;;;;;;;4.07;0.80;;;;;;;;;;5043240;28;20055;-59
2021/10/02 23:01:04;;;;;;;5.22;0.60;;;;;;;;;;5036211;28;20033;-60
2021/10/02 23:03:30;;;;;;;4.28;0.32;;;;;;;;;;5035671;28;20038;-60
2021/10/02 23:05:58;;;;;;;3.92;0.65;;;;;;;;;;5032777;28;20064;-59
2021/10/02 23:08:25;;;;;;;3.92;0.47;;;;;;;;;;5034608;28;20029;-60
2021/10/02 23:10:51;;;;;;;3.70;1.10;;;;;;;;;;5047376;28;20504;-60
2021/10/02 23:13:20;;;;;;;3.35;0.60;;;;;;;;;;5030702;28;20029;-60
2021/10/02 23:15:57;;;;;;;1.70;0.50;;;;;;;;;;5032986;28;20573;-60
2021/10/02 23:18:33;;;;;;;4.35;0.57;;;;;;;;;;5034519;28;20079;-59
2021/10/02 23:21:00;;;;;;;4.90;1.02;;;;;;;;;;5031890;28;20472;-60
2021/10/02 23:23:29;;;;;;;9.05;0.52;;;;;;;;;;5032180;28;20048;-60
2021/10/02 23:25:55;;;;;;;7.75;0.70;;;;;;;;;;5033635;28;20378;-60
2021/10/02 23:28:25;;;;;;;7.35;0.57;;;;;;;;;;5036054;28;20123;-60
2021/10/02 23:30:52;;;;;;;7.95;0.93;;;;;;;;;;5030196;28;20047;-60
2021/10/02 23:33:18;;;;;;;12.63;0.93;;;;;;;;;;5037648;28;20043;-60
2021/10/02 23:35:45;;;;;;;1.63;0.43;;;;;;;;;;5032421;28;20036;-60
2021/10/02 23:38:11;;;;;;;4.50;0.40;;;;;;;;;;5037085;28;20029;-59
2021/10/02 23:40:36;;;;;;;5.68;0.75;;;;;;;;;;5033464;28;20051;-60
2021/10/02 23:43:02;;;;;;;5.07;0.50;;;;;;;;;;5033740;28;20278;-60
2021/10/02 23:45:28;;;;;;;4.32;0.85;;;;;;;;;;5034282;28;20051;-60
2021/10/02 23:47:54;;;;;;;5.10;0.50;;;;;;;;;;5034164;28;20460;-58
2021/10/02 23:50:20;;;;;;;8.50;1.20;;;;;;;;;;5033127;28;20171;-59
2021/10/02 23:53:05;;;;;;;10.40;0.93;;;;;;;;;;5031643;28;20053;-59
2021/10/02 23:55:34;;;;;;;1.58;0.30;;;;;;;;;;5035615;28;20103;-59
2021/10/02 23:58:00;;;;;;;4.85;0.40;;;;;;;;;;5032942;28;20041;-59
